Time;durP1;ratioP1;P1;durP2;ratioP2;P2;SDS_P1;SDS_P2;PMS_P1;PMS_P2;Temp;Humidity;BMP_temperature;BMP_pressure;BME280_temperature;BME280_humidity;BME280_pressure;Samples;Min_cycle;Max_cycle;Signal;HPM_P1;HPM_P2
2024/01/22 00:01:42;;;;;;;147.52;85.13;;;-2.50;99.90;;;;;;4973967;28;20042;-74
2024/01/22 00:04:08;;;;;;;215.18;120.70;;;-2.50;99.90;;;;;;4973825;28;20038;-79
2024/01/22 00:06:38;;;;;;;195.55;109.30;;;-2.60;99.90;;;;;;4974213;28;20050;-73
2024/01/22 00:09:04;;;;;;;112.03;64.07;;;-2.60;99.90;;;;;;4956374;28;20058;-73
2024/01/22 00:11:30;;;;;;;102.53;64.63;;;-2.80;99.90;;;;;;4973817;28;20023;-74
2024/01/22 00:13:56;;;;;;;92.10;55.65;;;-2.90;99.90;;;;;;4973461;28;20034;-74
2024/01/22 00:16:23;;;;;;;114.93;72.80;;;-3.10;99.90;;;;;;4968282;28;20026;-76
2024/01/22 00:18:49;;;;;;;100.03;63.22;;;-3.00;99.90;;;;;;4973613;28;20030;-75
2024/01/22 00:21:15;;;;;;;100.43;61.63;;;-3.10;99.90;;;;;;4973427;28;20043;-74
2024/01/22 00:23:41;;;;;;;93.43;58.92;;;-3.20;99.90;;;;;;4973718;28;20117;-73
2024/01/22 00:26:12;;;;;;;93.47;57.50;;;-3.20;99.90;;;;;;4973734;28;20117;-76
2024/01/22 00:28:38;;;;;;;82.47;50.60;;;-3.20;99.90;;;;;;4973198;28;20082;-76
2024/01/22 00:31:04;;;;;;;87.97;47.03;;;-3.20;99.90;;;;;;4972446;28;20045;-74
2024/01/22 00:33:30;;;;;;;81.18;47.63;;;-3.10;99.90;;;;;;4968844;28;20467;-74
2024/01/22 00:35:56;;;;;;;75.65;44.63;;;-3.10;99.90;;;;;;4969648;28;20037;-74
2024/01/22 00:38:22;;;;;;;73.32;44.38;;;-3.10;99.90;;;;;;4952535;28;20035;-74
2024/01/22 00:40:48;;;;;;;74.88;42.30;;;-3.10;99.90;;;;;;4973465;28;20046;-82
2024/01/22 00:43:14;;;;;;;71.85;43.58;;;-3.00;99.90;;;;;;4973271;28;20090;-80
2024/01/22 00:45:39;;;;;;;114.47;63.63;;;-3.00;99.90;;;;;;4973072;28;20077;-82
2024/01/22 00:48:06;;;;;;;128.00;67.60;;;-2.90;99.90;;;;;;4973423;28;20447;-81
2024/01/22 00:50:32;;;;;;;87.30;48.45;;;-2.90;99.90;;;;;;4973142;28;20039;-82
2024/01/22 00:52:58;;;;;;;103.93;55.75;;;-2.90;99.90;;;;;;4973209;28;20037;-81
2024/01/22 00:55:24;;;;;;;136.18;73.72;;;-2.90;99.90;;;;;;4955593;28;20057;-79
2024/01/22 00:57:50;;;;;;;113.07;57.75;;;-2.80;99.90;;;;;;4972642;28;20034;-80
2024/01/22 01:00:16;;;;;;;112.53;58.15;;;-2.80;99.90;;;;;;4971965;28;20023;-81
2024/01/22 01:02:42;;;;;;;103.35;55.75;;;-2.70;99.90;;;;;;4972903;28;20422;-79
2024/01/22 01:05:08;;;;;;;68.18;38.67;;;-2.70;99.90;;;;;;4972799;28;20035;-82
2024/01/22 01:07:35;;;;;;;126.25;64.03;;;-2.60;99.90;;;;;;4955329;28;20489;-82
2024/01/22 01:10:01;;;;;;;124.75;62.25;;;-2.60;99.90;;;;;;4972676;28;20026;-79
2024/01/22 01:12:27;;;;;;;120.60;61.63;;;-2.60;99.90;;;;;;4973146;28;20034;-74
2024/01/22 01:14:53;;;;;;;106.68;57.30;;;-2.60;99.90;;;;;;4972804;28;20482;-75
2024/01/22 01:17:19;;;;;;;108.28;55.78;;;-2.60;99.90;;;;;;4973185;28;20096;-77
2024/01/22 01:19:45;;;;;;;75.70;42.13;;;-2.60;99.90;;;;;;4972505;28;20023;-75
2024/01/22 01:22:11;;;;;;;54.78;36.40;;;-2.60;99.90;;;;;;4972959;28;20039;-73
2024/01/22 01:24:38;;;;;;;53.88;35.08;;;-2.60;99.90;;;;;;4972794;28;20533;-77
2024/01/22 01:27:04;;;;;;;49.97;31.60;;;-2.60;99.90;;;;;;4972521;28;20556;-73
2024/01/22 01:29:30;;;;;;;48.35;30.02;;;-2.60;99.90;;;;;;4955653;28;20023;-75
2024/01/22 01:31:55;;;;;;;55.35;33.53;;;-2.60;99.90;;;;;;4972417;28;20407;-79
2024/01/22 01:34:21;;;;;;;58.13;34.22;;;-2.60;99.90;;;;;;4972952;28;20105;-74
2024/01/22 01:36:48;;;;;;;56.50;36.80;;;-2.60;99.90;;;;;;4972619;28;20519;-76
2024/01/22 01:39:14;;;;;;;54.90;33.08;;;-2.60;99.90;;;;;;4972979;28;20481;-74
2024/01/22 01:41:40;;;;;;;54.38;33.85;;;-2.60;99.90;;;;;;4955055;28;20035;-81
2024/01/22 01:44:06;;;;;;;50.92;34.65;;;-2.60;99.90;;;;;;4972635;28;20078;-80
2024/01/22 01:46:32;;;;;;;48.72;30.52;;;-2.70;99.90;;;;;;4972328;28;20027;-75
2024/01/22 01:48:58;;;;;;;49.67;33.97;;;-2.70;99.90;;;;;;4972851;28;20399;-74
2024/01/22 01:51:25;;;;;;;62.50;36.92;;;-2.70;99.90;;;;;;4971778;28;20086;-81
2024/01/22 01:53:52;;;;;;;69.50;39.13;;;-2.70;99.90;;;;;;4964890;28;20424;-76
2024/01/22 01:56:19;;;;;;;57.22;36.05;;;-2.80;99.90;;;;;;4972767;28;20034;-75
2024/01/22 01:58:45;;;;;;;59.95;39.25;;;-2.80;99.90;;;;;;4972740;28;20038;-75
2024/01/22 02:01:11;;;;;;;66.13;36.30;;;-2.90;99.90;;;;;;4972106;28;20122;-79
2024/01/22 02:03:38;;;;;;;58.10;35.45;;;-2.90;99.90;;;;;;4972529;28;20125;-81
2024/01/22 02:06:05;;;;;;;67.30;38.42;;;-2.90;99.90;;;;;;4970474;28;20462;-82
2024/01/22 02:08:30;;;;;;;55.17;36.40;;;-3.00;99.90;;;;;;4978878;28;20534;-76
2024/01/22 02:10:56;;;;;;;63.45;37.00;;;-3.00;99.90;;;;;;4975962;28;20066;-77
2024/01/22 02:13:22;;;;;;;57.67;38.22;;;-3.00;99.90;;;;;;4958727;28;20058;-75
2024/01/22 02:15:48;;;;;;;57.65;38.75;;;-3.10;99.90;;;;;;4975856;28;20537;-75
2024/01/22 02:18:14;;;;;;;54.65;39.00;;;-3.20;99.90;;;;;;4975949;28;20161;-81
2024/01/22 02:20:40;;;;;;;63.25;42.60;;;-3.20;99.90;;;;;;4975222;28;20027;-80
2024/01/22 02:23:06;;;;;;;58.70;39.78;;;-3.20;99.90;;;;;;4968975;28;20367;-78
2024/01/22 02:25:32;;;;;;;61.90;40.92;;;-3.20;99.90;;;;;;4971228;28;20499;-78
2024/01/22 02:27:59;;;;;;;63.50;44.25;;;-3.20;99.90;;;;;;4974663;28;20034;-74
2024/01/22 02:30:25;;;;;;;59.75;41.75;;;-3.20;99.90;;;;;;4971351;28;20041;-74
2024/01/22 02:32:50;;;;;;;61.47;41.35;;;-3.20;99.90;;;;;;4975376;28;20051;-78
2024/01/22 02:35:17;;;;;;;66.00;41.97;;;-3.20;99.90;;;;;;4974029;28;20101;-74
2024/01/22 02:37:43;;;;;;;61.67;42.88;;;-3.30;99.90;;;;;;4973231;28;20472;-78
2024/01/22 02:40:10;;;;;;;64.15;45.45;;;-3.30;99.90;;;;;;4975337;28;20047;-80
2024/01/22 02:42:36;;;;;;;66.60;43.90;;;-3.20;99.90;;;;;;4975348;28;20039;-75
2024/01/22 02:45:03;;;;;;;63.13;45.28;;;-3.30;99.90;;;;;;4975418;28;20478;-76
2024/01/22 02:47:28;;;;;;;72.95;47.05;;;-3.30;99.90;;;;;;4975720;28;20039;-75
2024/01/22 02:49:54;;;;;;;71.75;48.47;;;-3.30;99.90;;;;;;4972417;28;20117;-78
2024/01/22 02:52:20;;;;;;;96.38;61.30;;;-3.30;99.90;;;;;;4973536;28;20027;-79
2024/01/22 02:54:46;;;;;;;81.53;55.13;;;-3.30;99.90;;;;;;4971589;28;20043;-74
2024/01/22 02:57:17;;;;;;;76.95;54.20;;;-3.30;99.90;;;;;;4975369;28;20031;-74
2024/01/22 02:59:43;;;;;;;74.97;50.17;;;-3.30;99.90;;;;;;4940686;28;20372;-81
2024/01/22 03:02:10;;;;;;;75.43;52.20;;;-3.30;99.90;;;;;;4956801;28;20102;-75
2024/01/22 03:04:35;;;;;;;80.57;53.88;;;-3.30;99.90;;;;;;4972268;28;20081;-75
2024/01/22 03:07:01;;;;;;;69.95;50.38;;;-3.30;99.90;;;;;;4969262;28;20043;-74
2024/01/22 03:09:27;;;;;;;70.53;47.90;;;-3.40;99.90;;;;;;4971770;28;20471;-78
2024/01/22 03:11:53;;;;;;;73.88;48.42;;;-3.40;99.90;;;;;;4973324;28;20098;-80
2024/01/22 03:14:19;;;;;;;66.95;44.00;;;-3.50;99.90;;;;;;4956271;28;20074;-75
2024/01/22 03:16:45;;;;;;;60.20;44.33;;;-3.50;99.90;;;;;;4956202;28;20480;-81
2024/01/22 03:19:11;;;;;;;59.30;43.03;;;-3.50;99.90;;;;;;4971919;28;20064;-75
2024/01/22 03:21:36;;;;;;;61.95;42.55;;;-3.60;99.90;;;;;;4974984;28;20129;-75
2024/01/22 03:24:03;;;;;;;66.15;43.22;;;-3.60;99.90;;;;;;4973062;28;20027;-74
2024/01/22 03:26:29;;;;;;;79.50;54.88;;;-3.50;99.90;;;;;;4965891;28;20042;-77
2024/01/22 03:28:55;;;;;;;65.25;40.05;;;-3.50;99.90;;;;;;4971801;28;20019;-76
2024/01/22 03:31:28;;;;;;;61.05;39.85;;;-3.50;99.90;;;;;;4970301;28;20530;-79
2024/01/22 03:33:55;;;;;;;67.25;44.33;;;-3.50;99.90;;;;;;4947872;28;20365;-77
2024/01/22 03:36:22;;;;;;;70.97;47.88;;;-3.60;99.90;;;;;;4969045;28;20034;-79
2024/01/22 03:38:48;;;;;;;76.53;49.88;;;-3.50;99.90;;;;;;4973457;28;20031;-74
2024/01/22 03:41:14;;;;;;;85.20;53.38;;;-3.50;99.90;;;;;;4974606;28;20394;-75
2024/01/22 03:43:44;;;;;;;66.82;46.10;;;-3.40;99.90;;;;;;4971666;28;20034;-81
2024/01/22 03:46:11;;;;;;;78.55;52.35;;;-3.40;99.90;;;;;;4965138;28;20051;-77
2024/01/22 03:48:37;;;;;;;66.97;45.65;;;-3.40;99.90;;;;;;4956576;28;20130;-79
2024/01/22 03:51:04;;;;;;;76.13;47.17;;;-3.40;99.90;;;;;;4974323;28;20054;-75
2024/01/22 03:53:30;;;;;;;100.60;63.13;;;-3.40;99.90;;;;;;4968532;28;20082;-76
2024/01/22 03:55:56;;;;;;;66.72;44.38;;;-3.50;99.90;;;;;;4973839;28;20031;-80
2024/01/22 03:58:22;;;;;;;62.20;41.17;;;-3.50;99.90;;;;;;4942963;29;20443;-75
2024/01/22 04:00:48;;;;;;;63.78;44.55;;;-3.50;99.90;;;;;;4967514;28;20101;-74
2024/01/22 04:03:14;;;;;;;76.03;49.53;;;-3.50;99.90;;;;;;4965915;28;20480;-77
2024/01/22 04:05:42;;;;;;;96.47;55.55;;;-3.50;99.90;;;;;;4974083;28;20109;-78
2024/01/22 04:08:08;;;;;;;85.78;53.05;;;-3.60;99.90;;;;;;4973438;28;20054;-75
2024/01/22 04:10:34;;;;;;;93.45;58.88;;;-3.70;99.90;;;;;;4974151;28;20053;-78
2024/01/22 04:13:00;;;;;;;99.45;59.10;;;-3.70;99.90;;;;;;4973030;28;20027;-76
2024/01/22 04:15:26;;;;;;;71.85;46.42;;;-3.80;99.90;;;;;;4967369;28;20039;-74
2024/01/22 04:17:52;;;;;;;90.10;57.47;;;-3.90;99.90;;;;;;4973339;28;20190;-74
2024/01/22 04:20:17;;;;;;;91.20;55.75;;;-3.90;99.90;;;;;;4956085;28;20031;-75
2024/01/22 04:22:43;;;;;;;67.78;44.22;;;-3.90;99.90;;;;;;4973740;28;20069;-75
2024/01/22 04:25:09;;;;;;;62.25;41.13;;;-3.90;99.90;;;;;;4973679;28;20026;-77
2024/01/22 04:27:36;;;;;;;54.30;36.85;;;-3.80;99.90;;;;;;4954551;28;20051;-77
2024/01/22 04:30:02;;;;;;;60.28;38.25;;;-3.80;99.90;;;;;;4964459;28;20034;-74
2024/01/22 04:32:28;;;;;;;57.33;37.80;;;-3.80;99.90;;;;;;4970324;28;20465;-73
2024/01/22 04:34:54;;;;;;;59.17;38.97;;;-3.70;99.90;;;;;;4971970;28;20027;-74
2024/01/22 04:37:21;;;;;;;60.97;40.22;;;-3.80;99.90;;;;;;4971938;28;20125;-74
2024/01/22 04:39:47;;;;;;;63.47;42.03;;;-3.80;99.90;;;;;;4955364;28;20562;-75
2024/01/22 04:42:18;;;;;;;57.55;39.28;;;-3.90;99.90;;;;;;4972019;28;20066;-81
2024/01/22 04:44:44;;;;;;;60.88;40.55;;;-4.00;99.90;;;;;;4963294;28;20027;-77
2024/01/22 04:47:10;;;;;;;53.78;38.38;;;-3.90;99.90;;;;;;4969370;28;20046;-75
2024/01/22 04:49:36;;;;;;;76.43;47.53;;;-3.90;99.90;;;;;;4948656;28;20035;-74
2024/01/22 04:52:01;;;;;;;57.53;39.15;;;-3.90;99.90;;;;;;4971688;28;20030;-75
2024/01/22 04:54:27;;;;;;;58.58;37.90;;;-3.90;99.90;;;;;;4966285;28;20038;-80
2024/01/22 04:56:54;;;;;;;82.15;48.38;;;-3.90;99.90;;;;;;4972645;28;20027;-73
2024/01/22 04:59:20;;;;;;;58.38;39.75;;;-3.90;99.90;;;;;;4971321;28;20027;-75
2024/01/22 05:01:46;;;;;;;75.38;47.90;;;-3.90;99.90;;;;;;4970121;28;20038;-75
2024/01/22 05:04:12;;;;;;;68.75;45.70;;;-3.90;99.90;;;;;;4972608;28;20034;-76
2024/01/22 05:06:38;;;;;;;73.93;47.35;;;-3.80;99.90;;;;;;4963148;28;20023;-74
2024/01/22 05:09:04;;;;;;;65.68;45.55;;;-3.80;99.90;;;;;;4952695;28;20057;-77
2024/01/22 05:11:31;;;;;;;84.13;52.70;;;-3.90;99.90;;;;;;4972660;28;20070;-75
2024/01/22 05:13:57;;;;;;;59.88;41.83;;;-3.90;99.90;;;;;;4966921;28;20098;-78
2024/01/22 05:16:23;;;;;;;61.38;42.25;;;-4.00;99.90;;;;;;4970470;28;20034;-77
2024/01/22 05:18:50;;;;;;;70.43;45.42;;;-3.90;99.90;;;;;;4963093;28;20027;-76
2024/01/22 05:21:16;;;;;;;71.22;44.25;;;-4.00;99.90;;;;;;4947260;28;20053;-73
2024/01/22 05:23:42;;;;;;;94.10;55.80;;;-4.00;99.90;;;;;;4971031;28;20031;-73
2024/01/22 05:26:08;;;;;;;72.22;46.45;;;-4.00;99.90;;;;;;4973024;28;20123;-73
2024/01/22 05:28:35;;;;;;;72.07;45.83;;;-3.90;99.90;;;;;;4963233;28;20113;-74
2024/01/22 05:31:01;;;;;;;65.72;45.65;;;-3.90;99.90;;;;;;4971015;28;20027;-74
2024/01/22 05:33:28;;;;;;;79.45;51.45;;;-3.90;99.90;;;;;;4965905;28;20055;-74
2024/01/22 05:35:55;;;;;;;74.38;47.63;;;-3.90;99.90;;;;;;4972786;28;20122;-73
2024/01/22 05:38:22;;;;;;;76.05;49.60;;;-3.90;99.90;;;;;;4972757;28;20086;-75
2024/01/22 05:40:48;;;;;;;139.18;78.95;;;-3.90;99.90;;;;;;4972826;28;20065;-74
2024/01/22 05:43:14;;;;;;;96.22;64.82;;;-3.90;99.90;;;;;;4973112;28;20035;-74
2024/01/22 05:45:40;;;;;;;88.03;57.22;;;-3.80;99.90;;;;;;4965532;28;20038;-74
2024/01/22 05:48:07;;;;;;;112.85;64.45;;;-3.80;99.90;;;;;;4976438;28;20030;-76
2024/01/22 05:50:33;;;;;;;73.38;49.40;;;-3.90;99.90;;;;;;4976611;28;20035;-77
2024/01/22 05:52:59;;;;;;;75.15;50.33;;;-3.80;99.90;;;;;;4976548;28;20041;-73
2024/01/22 05:55:28;;;;;;;85.18;56.67;;;-3.80;99.90;;;;;;5002672;23;20046;-73
2024/01/22 05:57:54;;;;;;;98.50;61.72;;;-3.80;99.90;;;;;;4995675;28;20034;-74
2024/01/22 06:00:22;;;;;;;83.22;59.83;;;-3.80;99.90;;;;;;4995915;28;20037;-74
2024/01/22 06:02:48;;;;;;;77.53;50.95;;;-3.90;99.90;;;;;;4995341;28;20045;-74
2024/01/22 06:05:14;;;;;;;68.00;50.75;;;-3.80;99.90;;;;;;4993671;28;20019;-74
2024/01/22 06:07:40;;;;;;;70.70;46.05;;;-3.90;99.90;;;;;;4981468;28;21545;-74
2024/01/22 06:10:07;;;;;;;67.88;46.10;;;-4.00;99.90;;;;;;4995703;28;20034;-74
2024/01/22 06:12:37;;;;;;;68.15;45.00;;;-4.00;99.90;;;;;;4995227;28;20485;-75
2024/01/22 06:15:03;;;;;;;68.95;47.53;;;-4.00;99.90;;;;;;4995746;28;20046;-73
2024/01/22 06:17:31;;;;;;;79.07;51.42;;;-4.10;99.90;;;;;;4994772;28;20026;-73
2024/01/22 06:20:01;;;;;;;96.55;62.85;;;-4.10;99.90;;;;;;4995528;28;20490;-73
2024/01/22 06:22:29;;;;;;;75.90;51.28;;;-4.00;99.90;;;;;;4994909;28;20038;-72
2024/01/22 06:24:55;;;;;;;92.53;50.95;;;-4.00;99.90;;;;;;4995054;28;20026;-77
2024/01/22 06:27:21;;;;;;;68.57;43.67;;;-4.00;99.90;;;;;;4994336;28;20367;-73
2024/01/22 06:29:47;;;;;;;63.47;41.95;;;-3.90;99.90;;;;;;4984476;28;20050;-74
2024/01/22 06:32:13;;;;;;;61.80;39.65;;;-3.80;99.90;;;;;;4993955;28;20505;-79
2024/01/22 06:34:40;;;;;;;61.30;38.63;;;-3.80;99.90;;;;;;4995091;28;20027;-77
2024/01/22 06:37:06;;;;;;;64.53;40.30;;;-3.70;99.90;;;;;;4994919;28;20046;-73
2024/01/22 06:39:32;;;;;;;96.30;54.42;;;-3.60;99.90;;;;;;4994980;28;20026;-73
2024/01/22 06:41:58;;;;;;;87.55;56.85;;;-3.50;99.90;;;;;;4994729;28;20034;-75
2024/01/22 06:44:24;;;;;;;89.82;53.88;;;-3.40;99.90;;;;;;4995361;28;20065;-78
2024/01/22 06:46:50;;;;;;;77.22;46.58;;;-3.60;99.90;;;;;;4994779;28;20077;-72
2024/01/22 06:49:16;;;;;;;67.30;42.97;;;-3.60;99.90;;;;;;4984715;28;20105;-78
2024/01/22 06:51:42;;;;;;;63.65;41.03;;;-3.50;99.90;;;;;;4989266;28;20070;-73
2024/01/22 06:54:08;;;;;;;63.05;40.55;;;-3.70;99.90;;;;;;4993773;28;20452;-73
2024/01/22 06:56:34;;;;;;;67.03;42.40;;;-3.90;99.90;;;;;;4994479;28;20092;-75
2024/01/22 06:59:00;;;;;;;66.82;38.72;;;-3.90;99.90;;;;;;4994469;28;20113;-74
2024/01/22 07:01:27;;;;;;;62.53;42.00;;;-4.00;99.90;;;;;;4982959;28;20035;-76
2024/01/22 07:03:56;;;;;;;62.80;41.30;;;-3.70;99.90;;;;;;4990699;28;20030;-78
2024/01/22 07:06:22;;;;;;;71.10;44.30;;;-3.70;99.90;;;;;;4977045;28;20031;-73
2024/01/22 07:08:48;;;;;;;81.18;54.70;;;-3.40;99.90;;;;;;4994311;28;20027;-73
2024/01/22 07:11:14;;;;;;;77.22;49.72;;;-3.20;99.90;;;;;;4993534;28;20026;-74
2024/01/22 07:13:40;;;;;;;84.88;55.95;;;-3.00;99.90;;;;;;4994305;28;20046;-73
2024/01/22 07:16:07;;;;;;;66.15;43.83;;;-2.80;99.90;;;;;;4977222;28;20033;-72
2024/01/22 07:18:34;;;;;;;80.25;51.38;;;-2.70;99.90;;;;;;4994359;28;20058;-74
2024/01/22 07:21:00;;;;;;;62.67;38.63;;;-3.00;99.90;;;;;;4979468;28;20117;-73
2024/01/22 07:23:27;;;;;;;87.43;54.47;;;-3.10;99.90;;;;;;4973881;28;20046;-77
2024/01/22 07:25:54;;;;;;;101.57;62.85;;;-3.00;99.90;;;;;;4994058;28;20470;-73
2024/01/22 07:28:20;;;;;;;63.65;41.72;;;-2.90;99.90;;;;;;4994250;28;20038;-75
2024/01/22 07:30:46;;;;;;;62.15;40.70;;;-2.60;99.90;;;;;;4991725;28;20470;-72
2024/01/22 07:33:12;;;;;;;59.28;39.47;;;-2.60;99.90;;;;;;4986206;28;20030;-76
2024/01/22 07:35:38;;;;;;;61.67;39.13;;;-2.40;99.90;;;;;;4993696;28;20124;-72
2024/01/22 07:38:07;;;;;;;60.10;38.83;;;-2.40;99.90;;;;;;4976534;28;20057;-74
2024/01/22 07:40:33;;;;;;;62.90;38.95;;;-2.50;99.90;;;;;;4977274;28;20042;-72
2024/01/22 07:42:59;;;;;;;67.80;43.80;;;-2.60;99.90;;;;;;4994037;28;20049;-76
2024/01/22 07:45:25;;;;;;;61.42;41.33;;;-2.50;99.90;;;;;;4993487;28;20018;-77
2024/01/22 07:47:50;;;;;;;65.60;40.90;;;-2.60;99.90;;;;;;4994226;28;20042;-73
2024/01/22 07:50:16;;;;;;;70.30;42.88;;;-2.70;99.90;;;;;;4993595;28;20037;-74
2024/01/22 07:52:43;;;;;;;60.22;40.08;;;-2.70;99.90;;;;;;4972061;28;20490;-72
2024/01/22 07:55:11;;;;;;;62.75;39.70;;;-2.60;99.90;;;;;;4998731;28;20104;-76
2024/01/22 07:57:37;;;;;;;62.08;37.92;;;-2.30;99.90;;;;;;4993788;28;20379;-73
2024/01/22 08:00:03;;;;;;;52.25;34.15;;;-2.10;99.90;;;;;;4985083;28;20026;-72
2024/01/22 08:02:33;;;;;;;57.53;36.08;;;-2.10;99.90;;;;;;4993342;28;20082;-71
2024/01/22 08:04:59;;;;;;;59.28;38.10;;;-2.20;99.90;;;;;;4992974;28;20073;-71
2024/01/22 08:07:24;;;;;;;58.55;34.75;;;-1.80;99.90;;;;;;4992454;28;20035;-73
2024/01/22 08:09:50;;;;;;;75.25;45.42;;;-2.00;99.90;;;;;;4972951;28;20080;-73
2024/01/22 08:12:16;;;;;;;61.58;37.63;;;-2.10;99.90;;;;;;4993292;28;20387;-73
2024/01/22 08:14:42;;;;;;;67.72;39.40;;;-1.70;99.90;;;;;;4993382;28;20113;-75
2024/01/22 08:17:08;;;;;;;58.75;35.30;;;-1.50;99.90;;;;;;4993335;28;20490;-74
2024/01/22 08:19:34;;;;;;;51.13;34.28;;;-1.60;99.90;;;;;;4993290;28;20031;-72
2024/01/22 08:22:02;;;;;;;55.45;34.65;;;-1.50;99.90;;;;;;4992927;28;20513;-76
2024/01/22 08:24:29;;;;;;;66.55;41.90;;;-1.60;99.90;;;;;;4989389;28;20478;-75
2024/01/22 08:26:55;;;;;;;55.72;34.20;;;-1.40;99.90;;;;;;4990322;28;20027;-71
2024/01/22 08:29:20;;;;;;;57.35;33.97;;;-1.20;99.90;;;;;;4992935;28;20105;-72
2024/01/22 08:31:46;;;;;;;65.75;36.38;;;-1.10;99.90;;;;;;4992623;28;20065;-75
2024/01/22 08:34:17;;;;;;;67.25;38.28;;;-1.20;99.90;;;;;;4989314;28;20038;-69
2024/01/22 08:36:43;;;;;;;58.55;35.35;;;-1.20;99.90;;;;;;4973675;28;20427;-73
2024/01/22 08:39:09;;;;;;;56.78;34.95;;;-1.10;99.90;;;;;;4991579;28;20106;-74
2024/01/22 08:41:37;;;;;;;66.50;39.00;;;-0.80;99.90;;;;;;4990159;28;20117;-72
2024/01/22 08:44:05;;;;;;;55.97;32.92;;;-0.50;99.90;;;;;;4992575;28;20503;-72
2024/01/22 08:46:32;;;;;;;65.03;37.97;;;-0.30;99.90;;;;;;4992413;28;20026;-78
2024/01/22 08:48:58;;;;;;;58.50;34.10;;;-0.40;99.90;;;;;;4992641;28;20430;-72
2024/01/22 08:51:24;;;;;;;51.95;32.10;;;-0.50;99.90;;;;;;4992351;28;20046;-72
2024/01/22 08:53:50;;;;;;;47.58;31.63;;;-0.80;99.90;;;;;;4991821;28;20038;-76
2024/01/22 08:56:16;;;;;;;59.75;36.72;;;-0.70;99.90;;;;;;4987213;28;20451;-73
2024/01/22 08:58:42;;;;;;;55.70;34.50;;;-0.90;99.90;;;;;;4987870;28;20031;-72
2024/01/22 09:01:08;;;;;;;50.65;33.03;;;-0.50;99.90;;;;;;4984672;28;20377;-75
2024/01/22 09:03:34;;;;;;;50.42;32.38;;;-0.60;99.90;;;;;;4991463;28;20030;-72
2024/01/22 09:06:00;;;;;;;53.80;33.30;;;-0.60;99.90;;;;;;4991910;28;20037;-72
2024/01/22 09:08:28;;;;;;;52.38;32.53;;;-0.60;99.90;;;;;;4991833;28;20532;-72
2024/01/22 09:10:54;;;;;;;63.88;39.45;;;-0.40;99.90;;;;;;4987398;28;20100;-71
2024/01/22 09:13:27;;;;;;;54.97;33.50;;;0.00;99.90;;;;;;4990906;28;20105;-71
2024/01/22 09:15:57;;;;;;;58.45;34.83;;;0.20;99.90;;;;;;4958028;28;20466;-78
2024/01/22 09:18:23;;;;;;;55.22;35.05;;;0.00;99.90;;;;;;4990803;28;20026;-74
2024/01/22 09:20:51;;;;;;;53.15;33.70;;;0.20;99.90;;;;;;4989083;28;20112;-72
2024/01/22 09:23:17;;;;;;;54.53;32.40;;;0.40;99.90;;;;;;4992553;28;20486;-72
2024/01/22 09:25:43;;;;;;;53.05;28.80;;;0.50;99.90;;;;;;4975086;28;20031;-72
2024/01/22 09:28:09;;;;;;;55.05;31.15;;;0.60;99.90;;;;;;4992524;28;20030;-74
2024/01/22 09:30:35;;;;;;;51.35;30.52;;;0.70;99.90;;;;;;4979705;28;20115;-72
2024/01/22 09:33:03;;;;;;;50.22;30.92;;;0.70;99.90;;;;;;4993759;28;20054;-77
2024/01/22 09:35:29;;;;;;;51.28;31.08;;;0.80;99.90;;;;;;4975272;28;20027;-71
2024/01/22 09:37:55;;;;;;;44.85;29.60;;;0.80;99.90;;;;;;4974630;28;20042;-73
2024/01/22 09:40:25;;;;;;;40.55;25.63;;;0.90;99.90;;;;;;4992270;28;20026;-70
2024/01/22 09:42:54;;;;;;;46.45;30.02;;;0.90;99.90;;;;;;4992228;28;20038;-71
2024/01/22 09:45:19;;;;;;;52.72;29.67;;;0.90;99.90;;;;;;4992075;28;20172;-71
2024/01/22 09:47:46;;;;;;;42.25;26.88;;;0.90;99.90;;;;;;4992359;28;20065;-77
2024/01/22 09:50:12;;;;;;;53.33;31.02;;;1.00;99.90;;;;;;4992070;28;20382;-72
2024/01/22 09:52:44;;;;;;;54.53;32.15;;;1.00;99.90;;;;;;4974316;28;20034;-72
2024/01/22 09:55:12;;;;;;;60.22;35.13;;;1.00;99.90;;;;;;4973736;28;20082;-72
2024/01/22 09:57:39;;;;;;;54.50;34.15;;;1.10;99.90;;;;;;4991927;28;20081;-73
2024/01/22 10:00:07;;;;;;;42.72;26.40;;;1.10;99.90;;;;;;4992157;28;20022;-73
2024/01/22 10:02:40;;;;;;;43.67;26.75;;;1.10;99.90;;;;;;4991643;28;20430;-73
2024/01/22 10:05:09;;;;;;;57.53;29.75;;;1.10;99.90;;;;;;4962852;28;20022;-74
2024/01/22 10:07:35;;;;;;;50.92;32.88;;;1.20;99.90;;;;;;4991647;28;20035;-72
2024/01/22 10:10:01;;;;;;;50.90;30.63;;;1.30;99.90;;;;;;4991693;28;20130;-76
2024/01/22 10:12:27;;;;;;;53.10;31.50;;;1.30;99.90;;;;;;4991269;28;20035;-74
2024/01/22 10:14:53;;;;;;;43.03;26.55;;;1.30;99.90;;;;;;4991220;28;20026;-72
2024/01/22 10:17:25;;;;;;;53.42;31.38;;;1.40;99.90;;;;;;4991487;28;20120;-77
2024/01/22 10:19:54;;;;;;;55.83;30.42;;;1.40;99.90;;;;;;4983707;28;20078;-73
2024/01/22 10:22:20;;;;;;;48.85;29.00;;;1.50;99.90;;;;;;4991665;28;20034;-71
2024/01/22 10:24:59;;;;;;;54.25;34.55;;;1.50;99.90;;;;;;4991666;28;20479;-72
2024/01/22 10:27:25;;;;;;;51.85;29.95;;;1.60;99.90;;;;;;4991545;28;20066;-73
2024/01/22 10:29:50;;;;;;;50.00;29.50;;;1.60;99.90;;;;;;4993142;28;20054;-73
2024/01/22 10:32:25;;;;;;;51.90;31.38;;;1.70;99.90;;;;;;4994058;28;20435;-76
2024/01/22 10:34:53;;;;;;;43.67;27.48;;;1.90;99.90;;;;;;4994584;28;20029;-77
2024/01/22 10:37:19;;;;;;;55.33;34.88;;;1.90;99.90;;;;;;4983565;28;20034;-75
2024/01/22 10:40:00;;;;;;;48.13;32.88;;;1.90;99.90;;;;;;4990516;28;20027;-72
2024/01/22 10:42:26;;;;;;;54.65;36.10;;;1.80;99.90;;;;;;4983250;28;20035;-71
2024/01/22 10:44:55;;;;;;;53.83;32.38;;;1.90;99.90;;;;;;4995117;28;20125;-71
2024/01/22 10:47:21;;;;;;;54.53;35.88;;;1.90;99.90;;;;;;4994824;28;20023;-75
2024/01/22 10:49:47;;;;;;;45.40;29.52;;;2.00;99.90;;;;;;4994405;28;20465;-72
2024/01/22 10:52:13;;;;;;;43.80;27.52;;;2.20;99.90;;;;;;4995013;28;20061;-78
2024/01/22 10:54:39;;;;;;;49.72;31.25;;;2.30;99.90;;;;;;4993753;28;20054;-69
2024/01/22 10:57:09;;;;;;;40.95;25.88;;;2.30;99.90;;;;;;4985530;28;20029;-73
2024/01/22 10:59:45;;;;;;;47.58;30.83;;;2.30;99.90;;;;;;4994642;28;20054;-73
2024/01/22 11:02:17;;;;;;;52.47;30.58;;;2.40;99.90;;;;;;4994477;28;20038;-74
2024/01/22 11:04:45;;;;;;;44.17;26.40;;;2.40;99.90;;;;;;4994230;28;20039;-73
2024/01/22 11:07:12;;;;;;;46.25;27.98;;;2.40;99.90;;;;;;4993235;28;20018;-74
2024/01/22 11:09:39;;;;;;;45.95;28.17;;;2.40;99.90;;;;;;4990720;28;20470;-74
2024/01/22 11:12:09;;;;;;;49.67;30.85;;;2.40;99.90;;;;;;4976037;28;20041;-73
2024/01/22 11:14:40;;;;;;;52.70;29.35;;;2.40;99.90;;;;;;4993847;28;20041;-69
2024/01/22 11:17:06;;;;;;;45.53;28.55;;;2.50;99.90;;;;;;4988439;28;20026;-75
2024/01/22 11:19:33;;;;;;;46.65;29.30;;;2.40;99.90;;;;;;4994036;28;20427;-73
2024/01/22 11:22:00;;;;;;;51.70;28.75;;;2.50;99.90;;;;;;4987791;28;20495;-75
2024/01/22 11:24:26;;;;;;;49.95;28.02;;;2.50;99.90;;;;;;4991112;28;20034;-71
2024/01/22 11:26:52;;;;;;;49.90;28.15;;;2.60;99.90;;;;;;4989913;28;20026;-71
2024/01/22 11:29:28;;;;;;;44.75;27.58;;;2.70;99.90;;;;;;4993213;28;20041;-78
2024/01/22 11:31:55;;;;;;;59.95;34.40;;;2.70;99.90;;;;;;4993482;28;20099;-71
2024/01/22 11:34:39;;;;;;;44.20;24.90;;;2.80;99.90;;;;;;4991465;28;20045;-71
2024/01/22 11:37:05;;;;;;;42.95;24.30;;;2.80;99.90;;;;;;4990785;28;20022;-70
2024/01/22 11:39:43;;;;;;;37.88;23.40;;;2.70;99.90;;;;;;4976519;28;20057;-70
2024/01/22 11:42:15;;;;;;;45.42;28.45;;;2.70;99.90;;;;;;4993356;28;20092;-77
2024/01/22 11:44:42;;;;;;;43.40;27.48;;;2.80;99.90;;;;;;4981454;28;20034;-70
2024/01/22 11:47:10;;;;;;;42.00;26.38;;;3.00;99.90;;;;;;4976687;28;20026;-73
2024/01/22 11:49:36;;;;;;;49.33;29.08;;;3.10;99.90;;;;;;4993809;28;20090;-72
2024/01/22 11:52:16;;;;;;;36.67;23.33;;;3.10;99.90;;;;;;4975289;28;20021;-72
2024/01/22 11:54:59;;;;;;;38.08;24.75;;;3.10;99.90;;;;;;4988956;28;20486;-72
2024/01/22 11:57:27;;;;;;;38.35;25.27;;;3.10;99.90;;;;;;4993810;28;20415;-76
2024/01/22 12:00:05;;;;;;;48.83;27.33;;;3.10;99.90;;;;;;4975959;28;20033;-71
2024/01/22 12:02:41;;;;;;;43.28;27.27;;;3.10;99.90;;;;;;4993565;28;20039;-74
2024/01/22 12:05:12;;;;;;;40.40;26.63;;;3.20;99.90;;;;;;4992888;28;20156;-70
2024/01/22 12:07:42;;;;;;;39.55;24.13;;;3.30;99.90;;;;;;4992500;28;20041;-70
2024/01/22 12:10:20;;;;;;;41.28;24.90;;;3.20;99.90;;;;;;4989893;28;20026;-71
2024/01/22 12:13:03;;;;;;;36.40;23.85;;;3.20;99.90;;;;;;4993209;28;20053;-73
2024/01/22 12:15:33;;;;;;;39.35;23.35;;;3.20;99.90;;;;;;4992887;28;20077;-72
2024/01/22 12:18:01;;;;;;;39.92;24.70;;;3.20;99.90;;;;;;4992969;28;20042;-74
2024/01/22 12:20:28;;;;;;;40.38;25.55;;;3.20;99.90;;;;;;4993252;28;20029;-74
2024/01/22 12:23:04;;;;;;;43.40;26.15;;;3.20;99.90;;;;;;4990674;28;20058;-72
2024/01/22 12:25:37;;;;;;;41.35;23.52;;;3.30;99.90;;;;;;4984765;28;20520;-73
2024/01/22 12:28:12;;;;;;;41.25;24.02;;;3.30;99.90;;;;;;4992159;28;20056;-71